Address 0xe9c8c9c10bcd991754733516fc8e5ac7d473576e

 
 
Txn Hash
Block
From
To
Value [Txn Fee]
0x781ad7b5d193f6486fd0452aa1437c1e403fef9827848ef3a2bc77841f7bce8a97205582021-08-03 18:50:366 mins ago0xe9c8c9c10bcd991754733516fc8e5ac7d473576eOUT 0x403473f684d791a3646c7539158f11784977d2c10 BNB0.000220915
0x5813d90a71a7b5dbbd959b87ccd3b72acc67b1cac30af244124a64ba868a51ad97202302021-08-03 18:34:1123 mins ago0xe9c8c9c10bcd991754733516fc8e5ac7d473576eOUT 0x22c88156e08218f5551460b491d8436b34be92ca0 BNB0.000184185
0xd1744957b4a9f6063e24b2b659c5c3dd3a8623ad1f133e9e83c936f9807b018597200502021-08-03 18:24:1633 mins ago0xe9c8c9c10bcd991754733516fc8e5ac7d473576eOUT 0xdf27384476617d8fe75fec603f2458be8d9b30760 BNB0.00022109
0xb1b539cd06ecfebe620f81707c8e952e05c8ec6887225f9f4be150115b1c153697199572021-08-03 18:19:3137 mins ago0xe9c8c9c10bcd991754733516fc8e5ac7d473576eOUT 0x1601b30fc3c9a1832711305a71e75289e38c03170 BNB0.000193310492
0x759a59faed9618b7b751e48cb7ee4db7fc2f48bcfc58c6b74141b96b0ae5570f97199062021-08-03 18:16:5840 mins ago0xe9c8c9c10bcd991754733516fc8e5ac7d473576eOUT 0x1601b30fc3c9a1832711305a71e75289e38c03170 BNB0.000220795
0xec5522a3caf51738cc92926cadfe2d1dd7e82f2b588761dc2df06141ffe368fa97198772021-08-03 18:15:3141 mins ago0xe9c8c9c10bcd991754733516fc8e5ac7d473576eOUT 0x8f7b5623bf5baeae5f9f33b296d8239647b038000 BNB0.000264295061
0xe099dd5df930bcc1f0bb7fc57aca63ef65f4462d056f11dfec7d88775c3907e497194852021-08-03 17:55:441 hr 1 min ago0xe9c8c9c10bcd991754733516fc8e5ac7d473576eOUT 0x403473f684d791a3646c7539158f11784977d2c10 BNB0.000270466
0xd665edb0ad5ad561f95d0daefd73aac4987b84d60eb80bb274c9a0b9198b849997193622021-08-03 17:49:271 hr 7 mins ago0xe9c8c9c10bcd991754733516fc8e5ac7d473576eOUT 0x349972aab1f3f1e130c474a967d24a877bf589860 BNB0.0002164491
0x3562ced0aaeab9d02b2d940b285c18000f094b7a02ca85c7bf23206507595bcb97191022021-08-03 17:36:191 hr 21 mins ago0xe9c8c9c10bcd991754733516fc8e5ac7d473576eOUT 0x8ae57a7f606b2d91c739c84e7d0b377271ceac000 BNB0.000184245
0xd7955fc363ff0c941d2ef2294d1b1f61f83f9715e7b6b9dab56382835f3c59bd97190782021-08-03 17:35:071 hr 22 mins ago0xe9c8c9c10bcd991754733516fc8e5ac7d473576eOUT 0xdf27384476617d8fe75fec603f2458be8d9b30760 BNB0.00023646456
0x2586c19d34b2801089cdfdfe81c7da82e069157ae36bb2416ecef1b46443c6b897189302021-08-03 17:27:361 hr 29 mins ago0xe9c8c9c10bcd991754733516fc8e5ac7d473576eOUT 0x89c44928685e4b65ee32cb5471c2709a144c2cfc0 BNB0.000184255
0x8279c3a62ee6d7e3477470f359bfd9595d79b22d1e0a3beafc749a9505112cf897188832021-08-03 17:25:151 hr 32 mins ago0xe9c8c9c10bcd991754733516fc8e5ac7d473576eOUT 0x8f7b5623bf5baeae5f9f33b296d8239647b038000 BNB0.00019319
0x8c5369034dace3949aa08a6dae6b4c635fed7ed15e976dd0535de5a67c288ae297188102021-08-03 17:21:361 hr 35 mins ago0xe9c8c9c10bcd991754733516fc8e5ac7d473576eOUT 0xe75bfbf8863d69b3b3a922cc56c99fb6e986f4760 BNB0.000184255
0xd9c6b3b07e3308dfb2e49629a8412dd5ce6e83114e16c1e9f236ae50d5ff433b97187502021-08-03 17:18:361 hr 38 mins ago0xe9c8c9c10bcd991754733516fc8e5ac7d473576eOUT 0xe75bfbf8863d69b3b3a922cc56c99fb6e986f4760 BNB0.0002319
0x1d1d9ed52917e8d6b8f425b1b23ef67686d04b650364f7ab61a6a1dc07dab40497186902021-08-03 17:15:271 hr 41 mins ago0xe9c8c9c10bcd991754733516fc8e5ac7d473576eOUT 0x8ae57a7f606b2d91c739c84e7d0b377271ceac000 BNB0.0002432034
0x39d4874a1bf61ca0efe86f6bff7d439cdb82f585f082ffbedca461c2297220e397186062021-08-03 17:11:151 hr 46 mins ago0xe9c8c9c10bcd991754733516fc8e5ac7d473576eOUT 0x403473f684d791a3646c7539158f11784977d2c10 BNB0.00023298
0x22c1daef80c550e7f7efadf55425e01d4593b4a311f9f48b37971f5f01b96e4997185712021-08-03 17:09:251 hr 47 mins ago0xe9c8c9c10bcd991754733516fc8e5ac7d473576eOUT 0x54d57db12e6dbe00c6595d762b98f738a6de790d0 BNB0.000184245
0xb49f656b2e73e1681bd830e2a41626190e496e3b0443a27f5f101539fb1f57df97185382021-08-03 17:07:371 hr 49 mins ago0xe9c8c9c10bcd991754733516fc8e5ac7d473576eSELF0xe9c8c9c10bcd991754733516fc8e5ac7d473576e0 BNB0.00013986
0x9c7e3d1e48651291d188dd30388c5db08bb152d0c85466c4aca846e15307717f97184732021-08-03 17:04:221 hr 53 mins ago0xe9c8c9c10bcd991754733516fc8e5ac7d473576eOUT 0xe75bfbf8863d69b3b3a922cc56c99fb6e986f4760 BNB0.000322343
0xf966f053062943807b9864afd277e8f0f35d82bb18d62de0639a4337fa09840397183272021-08-03 16:56:162 hrs 1 min ago0xe9c8c9c10bcd991754733516fc8e5ac7d473576eSELF0xe9c8c9c10bcd991754733516fc8e5ac7d473576e0 BNB0.00011655
0x20fd950ffdef93c50a3ef269250ccefc81eead37c642e7918e7f60b2e0f8ad6497182742021-08-03 16:53:222 hrs 4 mins ago0xe9c8c9c10bcd991754733516fc8e5ac7d473576eOUT 0xca5552ab8002ae2d1da44716b297f92ae991c0d90 BNB0.000276366
0x573dbcb79e2c9d69d79bed16b8a4534e2a0a2fc817f894bad2c3fc3d820e1dae97180192021-08-03 16:40:052 hrs 17 mins ago0xe9c8c9c10bcd991754733516fc8e5ac7d473576eOUT 0xb16162b7a8351e0e8a51f99deb3c3e98f7c0d22a0 BNB0.00060807
0x32b11cb74727efaff7d4b5cc69f3a1fdba1efd8c18836d67149b41fe00909f9097176832021-08-03 16:23:042 hrs 34 mins ago0xe9c8c9c10bcd991754733516fc8e5ac7d473576eOUT 0xdf27384476617d8fe75fec603f2458be8d9b30760 BNB0.000481312055
0xb950fd4b81d4f90561063cdcd0901b7cef1e4fd1d648908b5e4d3dd6d33c466c97176452021-08-03 16:21:102 hrs 36 mins ago0xe9c8c9c10bcd991754733516fc8e5ac7d473576eOUT 0xdf27384476617d8fe75fec603f2458be8d9b30760 BNB0.000230025
0x7fd1bb1fcae480e4ea69e1b2210773d188e61b0c1e66547667b1afdf05dda95e97176282021-08-03 16:20:192 hrs 37 mins ago0xe9c8c9c10bcd991754733516fc8e5ac7d473576eOUT 0xdf27384476617d8fe75fec603f2458be8d9b30760 BNB0.000220955
[ Download CSV Export 
Parent Txn Hash Block From To Value
Loading

Contract Name:
0 BNB

Compiler Version
0

Optimization Enabled:
0 BNB

Other Settings:
-NA-
Block Transaction Gas Used Reward
Age Block Fee Address BC Fee Address Voting Power Jailed Incoming
Block Uncle Number Difficulty Gas Used Reward
Loading
Loading
Make sure to use the "Vote Down" button for any spammy posts, and the "Vote Up" for interesting conversations.